LiveATC.Net - Listen to live air traffic control over the Internet!


ICAO: ENJB  IATA:   Airport: Jarlsberg Airfield
City: Tonsberg
Country: Norway   Continent: Europe
ENTO METAR Weather: ENTO 161120Z 16004KT 9999 -RA SCT007 BKN016 OVC022 01/01 Q0995 TEMPO 4000 SHRASN
ENJB Flight Activity (FlightAware)

ENJB CTAF
Feed Status: UP   Listeners: 0
Listen in your browser - HTML5 player (in browser, HTML5)
Click here to listen with your own player (launches your MP3 player)
Archive Access: ENJB CTAF
FacilityFrequency
Jarlsberg CTAF122.300

NOTICE

Unauthorized use prohibited. See LiveATC.net Terms of Service


Airport/ARTCC Code
Frequency Search
(e.g., 124.400, 128.75)
Site-wide search
 


Browse Feeds
Top 50 Feeds
Coverage Map
Bad Weather Areas

LiveATC FAQ
Offer LiveATC feed
Contact LiveATC.net
Press Inquiries

LiveATC on iPhone
LiveATC on Android

Windows Phone
Windows 8/10

LiveATC Mobile
(Mobile browser)

ATC Audio Archives
Interesting Recordings

LiveATC Forums


Home Page
About LiveATC.net
Make a Donation
Terms of Use
Privacy Policy

Canadian Air Freqs

AIRMETs/SIGMETs

FAA Airport Status
Nat'l Airspace Status
Arrival Demand Charts


Server Software By:
Icecast.org
Liquidsoap